Time;durP1;ratioP1;P1;durP2;ratioP2;P2;SDS_P1;SDS_P2;PMS_P1;PMS_P2;Temp;Humidity;BMP_temperature;BMP_pressure;BME280_temperature;BME280_humidity;BME280_pressure;Samples;Min_cycle;Max_cycle;Signal;HPM_P1;HPM_P2
2022/11/20 00:01:27;;;;;;;14.20;5.82;;;4.90;99.90;;;4.51;100.00;100644.75;5135604;28;20146;-76
2022/11/20 00:04:00;;;;;;;18.33;6.30;;;4.90;99.90;;;4.48;100.00;100649.72;5143723;28;20051;-75
2022/11/20 00:06:33;;;;;;;13.02;5.43;;;4.80;99.90;;;4.48;100.00;100654.88;5143477;28;20145;-76
2022/11/20 00:09:06;;;;;;;14.48;6.13;;;4.80;99.90;;;4.49;100.00;100650.63;5142330;28;20061;-76
2022/11/20 00:11:38;;;;;;;12.13;5.05;;;4.80;99.90;;;4.51;100.00;100649.91;5144442;28;20042;-76
2022/11/20 00:14:11;;;;;;;13.75;5.50;;;4.90;99.90;;;4.54;100.00;100650.06;5143086;28;20051;-74
2022/11/20 00:16:43;;;;;;;12.45;5.40;;;4.90;99.90;;;4.58;100.00;100649.44;5144468;28;20043;-75
2022/11/20 00:19:15;;;;;;;12.25;5.80;;;4.90;99.90;;;4.60;100.00;100647.84;5144245;28;20141;-77
2022/11/20 00:21:51;;;;;;;13.10;5.45;;;4.90;99.90;;;4.57;100.00;100642.53;5144659;28;20466;-75
2022/11/20 00:24:24;;;;;;;14.27;5.85;;;4.90;99.90;;;4.59;100.00;100643.47;5144718;28;20039;-74
2022/11/20 00:26:56;;;;;;;14.90;6.03;;;4.90;99.90;;;4.55;100.00;100645.78;5144331;28;20055;-75
2022/11/20 00:29:28;;;;;;;12.35;5.22;;;4.90;99.90;;;4.55;100.00;100646.69;5143974;28;20049;-74
2022/11/20 00:32:01;;;;;;;12.68;5.32;;;4.90;99.90;;;4.53;100.00;100640.56;5144061;28;20090;-74
2022/11/20 00:34:33;;;;;;;12.55;5.75;;;4.80;99.90;;;4.55;100.00;100641.53;5143862;28;20405;-74
2022/11/20 00:37:05;;;;;;;13.88;5.38;;;4.90;99.90;;;4.58;100.00;100646.88;5143059;28;20528;-74
2022/11/20 00:39:38;;;;;;;11.52;4.88;;;4.90;99.90;;;4.60;100.00;100650.41;5142828;28;20260;-75
2022/11/20 00:42:10;;;;;;;9.90;4.82;;;4.90;99.90;;;4.63;100.00;100653.19;5142876;28;20050;-76
2022/11/20 00:44:43;;;;;;;11.68;5.03;;;4.90;99.90;;;4.61;100.00;100647.03;5135161;28;20143;-75
2022/11/20 00:47:15;;;;;;;14.90;5.85;;;4.90;99.90;;;4.60;100.00;100640.09;5138208;28;20109;-75
2022/11/20 00:49:47;;;;;;;12.13;5.55;;;4.90;99.90;;;4.55;100.00;100638.94;5143654;28;20492;-76
2022/11/20 00:52:19;;;;;;;11.80;5.10;;;4.90;99.90;;;4.53;100.00;100632.81;5143191;28;20142;-75
2022/11/20 00:54:52;;;;;;;13.07;5.75;;;4.90;99.90;;;4.51;100.00;100629.25;5144299;28;20047;-76
2022/11/20 00:57:24;;;;;;;13.43;6.05;;;4.80;99.90;;;4.48;100.00;100625.59;5142752;28;20437;-76
2022/11/20 00:59:56;;;;;;;12.05;5.78;;;4.80;99.90;;;4.38;100.00;100621.63;5143736;28;20061;-75
2022/11/20 01:02:29;;;;;;;14.13;6.18;;;4.80;99.90;;;4.32;100.00;100626.44;5144038;28;20057;-74
2022/11/20 01:05:02;;;;;;;14.57;5.78;;;4.70;99.90;;;4.32;100.00;100632.50;5144266;28;20053;-75
2022/11/20 01:07:34;;;;;;;15.55;5.80;;;4.70;99.90;;;4.34;100.00;100640.31;5143681;28;20495;-75
2022/11/20 01:10:09;;;;;;;14.18;5.63;;;4.70;99.90;;;4.32;100.00;100629.03;5143688;28;20045;-74
2022/11/20 01:12:41;;;;;;;12.70;5.55;;;4.70;99.90;;;4.34;100.00;100633.47;5143723;28;20054;-74
2022/11/20 01:15:13;;;;;;;13.27;5.70;;;4.70;99.90;;;4.36;100.00;100628.38;5142575;28;20480;-76
2022/11/20 01:17:45;;;;;;;12.57;5.53;;;4.70;99.90;;;4.31;100.00;100629.84;5142010;28;20057;-73
2022/11/20 01:20:18;;;;;;;12.02;5.30;;;4.70;99.90;;;4.33;100.00;100625.63;5145121;28;20057;-75
2022/11/20 01:22:50;;;;;;;15.52;5.72;;;4.70;99.90;;;4.33;100.00;100631.69;5147844;28;20172;-74
2022/11/20 01:25:23;;;;;;;12.63;5.40;;;4.70;99.90;;;4.35;100.00;100632.66;5146592;28;20065;-75
2022/11/20 01:27:56;;;;;;;12.68;5.50;;;4.70;99.90;;;4.41;100.00;100632.13;5145951;28;20050;-74
2022/11/20 01:30:29;;;;;;;12.13;5.10;;;4.70;99.90;;;4.45;100.00;100639.25;5147414;28;20053;-75
2022/11/20 01:33:01;;;;;;;12.13;5.45;;;4.80;99.90;;;4.47;100.00;100632.47;5146235;28;20137;-74
2022/11/20 01:35:33;;;;;;;9.95;4.40;;;4.80;99.90;;;4.49;100.00;100635.13;5147814;28;20054;-76
2022/11/20 01:38:05;;;;;;;12.80;5.45;;;4.80;99.90;;;4.46;100.00;100633.28;5147203;28;20053;-76
2022/11/20 01:40:39;;;;;;;16.55;6.30;;;4.80;99.90;;;4.42;100.00;100628.72;5147605;28;20137;-76
2022/11/20 01:43:20;;;;;;;12.20;5.30;;;4.70;99.90;;;4.44;100.00;100632.31;5146337;28;20062;-75
2022/11/20 01:46:08;;;;;;;12.20;5.32;;;4.80;99.90;;;4.45;100.00;100628.03;5147488;28;20053;-74
2022/11/20 01:48:51;;;;;;;14.32;5.45;;;4.80;99.90;;;4.44;100.00;100628.84;5146806;28;20038;-75
2022/11/20 01:51:30;;;;;;;11.50;5.38;;;4.80;99.90;;;4.44;100.00;100627.16;5147362;28;20543;-74
2022/11/20 01:54:08;;;;;;;13.23;5.60;;;4.80;99.90;;;4.41;100.00;100626.06;5147524;28;20114;-74
2022/11/20 01:56:45;;;;;;;12.57;5.18;;;4.70;99.90;;;4.41;100.00;100624.38;5146020;28;20086;-77
2022/11/20 01:59:20;;;;;;;13.38;6.10;;;4.70;99.90;;;4.43;100.00;100621.88;5146377;28;20289;-75
2022/11/20 02:01:52;;;;;;;12.75;5.30;;;4.70;99.90;;;4.41;100.00;100620.91;5145875;28;20046;-75
2022/11/20 02:04:25;;;;;;;13.65;5.25;;;4.70;99.90;;;4.45;100.00;100621.19;5145568;28;20055;-75
2022/11/20 02:07:02;;;;;;;12.35;5.28;;;4.80;99.90;;;4.48;100.00;100623.03;5145903;28;20508;-74
2022/11/20 02:09:34;;;;;;;12.30;5.15;;;4.80;99.90;;;4.47;100.00;100611.81;5146679;28;20159;-76
2022/11/20 02:13:42;;;;;;;14.00;5.80;;;4.80;99.90;;;4.44;100.00;100609.06;5146858;28;20057;-76
2022/11/20 02:14:59;;;;;;;14.10;5.65;;;4.80;99.90;;;4.42;100.00;100608.06;5146514;28;20043;-74
2022/11/20 02:17:31;;;;;;;14.18;5.75;;;4.80;99.90;;;4.34;100.00;100592.16;5146810;28;20049;-75
2022/11/20 02:20:05;;;;;;;13.95;5.22;;;4.70;99.90;;;4.29;100.00;100596.19;5146946;28;20059;-74
2022/11/20 02:22:48;;;;;;;13.82;6.32;;;4.70;99.90;;;4.28;100.00;100599.56;5145412;28;20046;-74
2022/11/20 02:25:22;;;;;;;13.73;5.80;;;4.70;99.90;;;4.23;100.00;100594.94;5145317;28;20050;-75
2022/11/20 02:27:54;;;;;;;13.75;5.47;;;4.60;99.90;;;4.20;100.00;100584.47;5146415;28;20461;-76
2022/11/20 02:30:26;;;;;;;14.65;5.40;;;4.60;99.90;;;4.07;100.00;100591.50;5145496;28;20059;-76
2022/11/20 02:32:59;;;;;;;12.65;5.75;;;4.50;99.90;;;4.07;100.00;100590.63;5145688;28;20059;-76
2022/11/20 02:35:45;;;;;;;10.60;4.78;;;4.50;99.90;;;4.08;100.00;100593.28;5146230;28;20053;-75
2022/11/20 02:38:17;;;;;;;13.38;5.45;;;4.50;99.90;;;4.14;100.00;100594.44;5146221;28;20070;-75
2022/11/20 02:40:51;;;;;;;11.32;5.25;;;4.50;99.90;;;4.20;100.00;100606.00;5146418;28;20043;-76
2022/11/20 02:43:24;;;;;;;11.55;4.57;;;4.60;99.90;;;4.25;100.00;100611.41;5144836;28;20053;-74
2022/11/20 02:45:56;;;;;;;11.00;4.47;;;4.60;99.90;;;4.30;100.00;100603.13;5145065;28;20043;-75
2022/11/20 02:48:28;;;;;;;10.50;4.50;;;4.60;99.90;;;4.34;100.00;100601.59;5144662;28;20534;-75
2022/11/20 02:51:00;;;;;;;11.05;4.78;;;4.60;99.90;;;4.36;100.00;100598.28;5146450;28;20129;-76
2022/11/20 02:53:34;;;;;;;11.32;5.38;;;4.60;99.90;;;4.40;100.00;100601.94;5145962;28;20042;-75
2022/11/20 02:56:08;;;;;;;11.27;5.10;;;4.70;99.90;;;4.41;100.00;100592.50;5144962;28;20066;-74
2022/11/20 02:58:40;;;;;;;11.48;4.90;;;4.70;99.90;;;4.40;100.00;100581.31;5144284;28;20157;-75
2022/11/20 03:01:12;;;;;;;11.32;5.05;;;4.70;99.90;;;4.41;100.00;100584.78;5144314;28;20146;-75
2022/11/20 03:03:44;;;;;;;14.02;5.38;;;4.70;99.90;;;4.40;100.00;100583.88;5145751;28;20050;-76
2022/11/20 03:06:17;;;;;;;12.52;5.20;;;4.70;99.90;;;4.35;100.00;100575.88;5146094;28;20074;-75
2022/11/20 03:08:49;;;;;;;12.75;5.25;;;4.70;99.90;;;4.34;100.00;100579.25;5145157;28;20046;-75
2022/11/20 03:11:22;;;;;;;13.15;5.72;;;4.70;99.90;;;4.36;100.00;100580.22;5145827;28;20067;-74
2022/11/20 03:13:55;;;;;;;13.40;5.65;;;4.70;99.90;;;4.41;100.00;100579.59;5145793;28;20046;-73
2022/11/20 03:16:27;;;;;;;11.00;4.95;;;4.70;99.90;;;4.42;100.00;100577.09;5144738;28;20051;-74
2022/11/20 03:19:00;;;;;;;12.50;5.30;;;4.70;99.90;;;4.44;100.00;100574.63;5145466;28;20126;-74
2022/11/20 03:21:36;;;;;;;14.27;5.88;;;4.70;99.90;;;4.42;100.00;100577.09;5143918;28;20046;-75
2022/11/20 03:24:09;;;;;;;12.05;4.97;;;4.70;99.90;;;4.44;100.00;100580.69;5143991;28;20054;-75
2022/11/20 03:26:42;;;;;;;13.27;5.57;;;4.70;99.90;;;4.46;100.00;100573.91;5145572;28;20623;-76
2022/11/20 03:29:15;;;;;;;13.20;5.63;;;4.80;99.90;;;4.43;100.00;100568.56;5144896;28;20058;-75
2022/11/20 03:31:47;;;;;;;12.95;5.20;;;4.80;99.90;;;4.47;100.00;100569.63;5145962;28;20039;-74
2022/11/20 03:34:19;;;;;;;12.68;4.88;;;4.80;99.90;;;4.49;100.00;100573.16;5144915;28;20050;-75
2022/11/20 03:36:52;;;;;;;10.57;4.57;;;4.80;99.90;;;4.52;100.00;100575.94;5144128;28;20051;-74
2022/11/20 03:39:25;;;;;;;11.57;4.63;;;4.80;99.90;;;4.53;100.00;100564.81;5144901;28;20408;-77
2022/11/20 03:41:58;;;;;;;11.10;5.35;;;4.80;99.90;;;4.54;100.00;100572.63;5145286;28;20518;-76
2022/11/20 03:44:30;;;;;;;11.18;5.05;;;4.80;99.90;;;4.56;100.00;100570.13;5145327;28;20065;-76
2022/11/20 03:47:02;;;;;;;11.05;4.43;;;4.80;99.90;;;4.58;100.00;100572.00;5145105;28;20525;-74
2022/11/20 03:49:34;;;;;;;13.23;5.60;;;4.80;99.90;;;4.55;100.00;100564.06;5144804;28;20066;-76
2022/11/20 03:52:06;;;;;;;14.05;5.65;;;4.90;99.90;;;4.54;100.00;100559.72;5145142;28;20043;-75
2022/11/20 03:54:39;;;;;;;13.73;5.50;;;4.80;99.90;;;4.56;100.00;100563.31;5144925;28;20149;-76
2022/11/20 03:57:12;;;;;;;14.02;5.85;;;4.80;99.90;;;4.55;100.00;100566.66;5144873;28;20051;-74
2022/11/20 03:59:45;;;;;;;12.35;5.35;;;4.80;99.90;;;4.56;100.00;100555.56;5142730;28;20101;-74
2022/11/20 04:02:17;;;;;;;16.30;6.80;;;4.80;99.90;;;4.54;100.00;100551.09;5143300;28;20046;-75
2022/11/20 04:04:49;;;;;;;13.75;5.55;;;4.80;99.90;;;4.52;100.00;100556.19;5144300;28;20050;-75
2022/11/20 04:07:21;;;;;;;15.07;6.38;;;4.80;99.90;;;4.54;100.00;100559.72;5143621;28;20050;-74
2022/11/20 04:09:53;;;;;;;14.52;5.72;;;4.80;99.90;;;4.54;100.00;100546.81;5144474;28;20130;-74
2022/11/20 04:12:27;;;;;;;14.27;6.13;;;4.90;99.90;;;4.54;100.00;100549.41;5144626;28;20507;-74
2022/11/20 04:14:59;;;;;;;16.58;7.15;;;4.80;99.90;;;4.53;100.00;100545.03;5144644;28;20444;-75
2022/11/20 04:17:31;;;;;;;17.90;6.38;;;4.80;99.90;;;4.51;100.00;100556.09;5143036;28;20062;-75
2022/11/20 04:20:04;;;;;;;14.13;6.07;;;4.80;99.90;;;4.51;100.00;100554.41;5144441;28;20051;-76
2022/11/20 04:22:36;;;;;;;15.15;6.35;;;4.80;99.90;;;4.52;100.00;100551.00;5144639;28;20042;-76
2022/11/20 04:25:09;;;;;;;16.15;5.95;;;4.90;99.90;;;4.51;100.00;100550.94;5144379;28;20046;-76
2022/11/20 04:27:43;;;;;;;19.98;8.02;;;4.80;99.90;;;4.45;100.00;100546.31;5143880;28;20061;-74
2022/11/20 04:30:15;;;;;;;16.05;6.93;;;4.80;99.90;;;4.42;100.00;100534.94;5142999;28;20043;-74
2022/11/20 04:32:47;;;;;;;16.33;6.20;;;4.80;99.90;;;4.41;100.00;100533.16;5143248;28;20142;-74
2022/11/20 04:35:20;;;;;;;14.93;6.60;;;4.80;99.90;;;4.41;100.00;100533.16;5142870;28;20154;-74
2022/11/20 04:37:53;;;;;;;14.20;6.05;;;4.70;99.90;;;4.41;100.00;100544.38;5143654;28;20109;-75
2022/11/20 04:40:25;;;;;;;14.05;5.93;;;4.70;99.90;;;4.44;100.00;100543.66;5144259;28;20045;-75
2022/11/20 04:42:59;;;;;;;16.08;5.88;;;4.80;99.90;;;4.45;100.00;100540.28;5144016;28;20385;-75
2022/11/20 04:45:32;;;;;;;13.32;5.88;;;4.80;99.90;;;4.47;100.00;100544.69;5143827;28;20050;-74
2022/11/20 04:48:05;;;;;;;13.40;5.35;;;4.80;99.90;;;4.49;100.00;100537.91;5143632;28;20097;-75
2022/11/20 04:50:41;;;;;;;14.35;5.95;;;4.80;99.90;;;4.51;100.00;100538.91;5143822;28;20057;-75
2022/11/20 04:53:13;;;;;;;14.40;6.63;;;4.80;99.90;;;4.51;100.00;100538.91;5144019;28;20043;-75
2022/11/20 04:55:46;;;;;;;15.55;6.10;;;4.80;99.90;;;4.52;100.00;100534.63;5143712;28;20134;-76
2022/11/20 04:58:20;;;;;;;14.80;5.70;;;4.80;99.90;;;4.45;100.00;100530.84;5143191;28;20052;-75
2022/11/20 05:00:52;;;;;;;16.85;6.55;;;4.70;99.90;;;4.40;100.00;100542.59;5150095;23;20207;-86
2022/11/20 05:03:24;;;;;;;16.15;6.38;;;4.80;99.90;;;4.39;100.00;100537.34;5122161;28;20048;-86
2022/11/20 05:05:56;;;;;;;13.70;5.63;;;4.70;99.90;;;4.40;100.00;100544.28;5106481;29;20052;-86
2022/11/20 05:08:28;;;;;;;12.75;5.63;;;4.70;99.90;;;4.39;100.00;100540.81;5107661;29;20063;-87
2022/11/20 05:11:02;;;;;;;14.57;5.72;;;4.70;99.90;;;4.41;100.00;100538.31;5106894;29;20060;-86
2022/11/20 05:13:36;;;;;;;15.75;5.82;;;4.70;99.90;;;4.42;100.00;100553.00;5122733;28;20144;-86
2022/11/20 05:16:10;;;;;;;10.63;4.82;;;4.70;99.90;;;4.42;100.00;100548.72;5107094;29;20407;-85
2022/11/20 05:18:42;;;;;;;12.10;5.57;;;4.70;99.90;;;4.43;100.00;100554.75;5105468;29;20052;-87
2022/11/20 05:21:15;;;;;;;13.57;5.82;;;4.70;99.90;;;4.42;100.00;100546.13;5105908;29;20055;-86
2022/11/20 05:23:48;;;;;;;13.85;5.88;;;4.70;99.90;;;4.44;100.00;100554.88;5106967;29;20054;-85
2022/11/20 05:26:22;;;;;;;12.15;4.50;;;4.70;99.90;;;4.44;100.00;100548.81;5106175;29;20051;-87
2022/11/20 05:28:55;;;;;;;14.85;5.72;;;4.70;99.90;;;4.43;100.00;100547.91;5121130;29;20047;-87
2022/11/20 05:31:27;;;;;;;12.98;4.85;;;4.70;99.90;;;4.41;100.00;100552.09;5106771;29;20095;-86
2022/11/20 05:33:59;;;;;;;13.80;5.38;;;4.70;99.90;;;4.40;100.00;100557.19;5105259;29;20419;-86
2022/11/20 05:36:31;;;;;;;13.57;5.03;;;4.70;99.90;;;4.40;100.00;100557.19;5121305;29;20059;-87
2022/11/20 05:39:04;;;;;;;12.73;5.85;;;4.70;99.90;;;4.40;100.00;100554.59;5107074;29;20437;-87
2022/11/20 05:41:36;;;;;;;15.05;6.05;;;4.70;99.90;;;4.40;100.00;100558.06;5137591;28;20130;-87
2022/11/20 05:44:11;;;;;;;12.13;5.13;;;4.70;99.90;;;4.41;100.00;100557.28;5127741;28;20066;-88
2022/11/20 05:46:43;;;;;;;16.25;6.38;;;4.70;99.90;;;4.39;100.00;100556.31;5146733;28;20043;-86
2022/11/20 05:49:15;;;;;;;14.15;5.78;;;4.70;99.90;;;4.40;100.00;100558.06;5147856;28;20034;-87
2022/11/20 05:51:47;;;;;;;14.20;5.60;;;4.70;99.90;;;4.37;100.00;100552.75;5129955;28;20058;-88
2022/11/20 05:54:19;;;;;;;12.93;5.32;;;4.70;99.90;;;4.39;100.00;100561.47;5142834;28;20078;-88
2022/11/20 05:56:52;;;;;;;14.70;5.85;;;4.70;99.90;;;4.39;100.00;100553.72;5129470;28;20054;-87
2022/11/20 05:59:25;;;;;;;10.20;4.82;;;4.70;99.90;;;4.42;100.00;100556.47;5130586;28;20450;-87
2022/11/20 06:01:57;;;;;;;14.13;5.90;;;4.70;99.90;;;4.44;100.00;100549.72;5145165;28;20061;-87
2022/11/20 06:04:29;;;;;;;13.45;5.15;;;4.70;99.90;;;4.49;100.00;100565.44;5145048;28;20035;-86
2022/11/20 06:07:01;;;;;;;13.07;5.10;;;4.80;99.90;;;4.51;100.00;100556.09;5130326;28;20058;-89
2022/11/20 06:09:33;;;;;;;14.73;5.18;;;4.80;99.90;;;4.48;100.00;100546.47;5123898;28;20142;-87
2022/11/20 06:12:06;;;;;;;13.43;5.53;;;4.80;99.90;;;4.52;100.00;100557.88;5129746;28;20562;-87
2022/11/20 06:14:40;;;;;;;15.57;6.03;;;4.80;99.90;;;4.50;100.00;100554.28;5133245;28;20028;-87
2022/11/20 06:17:12;;;;;;;13.07;5.60;;;4.70;99.90;;;4.52;100.00;100563.91;5145846;28;20043;-89
2022/11/20 06:19:44;;;;;;;13.93;5.13;;;4.80;99.90;;;4.50;100.00;100565.53;5142414;29;20047;-89
2022/11/20 06:22:16;;;;;;;13.73;5.85;;;4.80;99.90;;;4.52;100.00;100552.72;5129456;28;20070;-86
2022/11/20 06:24:48;;;;;;;14.57;5.90;;;4.80;99.90;;;4.54;100.00;100557.13;5146240;28;20401;-86
2022/11/20 06:27:20;;;;;;;15.95;5.68;;;4.80;99.90;;;4.52;100.00;100553.59;5131092;29;20508;-89
2022/11/20 06:29:54;;;;;;;12.70;5.57;;;4.80;99.90;;;4.52;100.00;100557.88;5129183;29;20533;-86
2022/11/20 06:32:26;;;;;;;16.17;5.63;;;4.80;99.90;;;4.53;100.00;100542.47;5129033;29;20051;-87
2022/11/20 06:34:58;;;;;;;16.83;6.82;;;4.80;99.90;;;4.54;100.00;100556.25;5145210;28;20047;-85
2022/11/20 06:37:30;;;;;;;13.73;5.22;;;4.80;99.90;;;4.52;100.00;100547.53;5129336;29;20051;-86
2022/11/20 06:40:02;;;;;;;13.18;5.80;;;4.80;99.90;;;4.48;100.00;100545.59;5128769;29;20058;-85
2022/11/20 06:42:34;;;;;;;15.70;5.78;;;4.80;99.90;;;4.51;100.00;100553.53;5129022;29;20062;-86
2022/11/20 06:45:09;;;;;;;12.63;5.47;;;4.80;99.90;;;4.53;100.00;100557.94;5130389;28;20039;-86
2022/11/20 06:47:41;;;;;;;;;;;4.80;99.90;;;4.52;100.00;100563.03;5131189;29;20059;-86
2022/11/20 06:50:13;;;;;;;16.38;6.78;;;4.80;99.90;;;4.48;100.00;100569.69;5134186;29;19923;-86
2022/11/20 06:52:45;;;;;;;13.70;5.93;;;4.80;99.90;;;4.48;100.00;100561.97;5146207;28;20051;-85
2022/11/20 06:55:17;;;;;;;13.27;5.63;;;4.80;99.90;;;4.50;100.00;100574.94;5128051;29;20062;-87
2022/11/20 06:57:51;;;;;;;12.63;5.65;;;4.80;99.90;;;4.48;100.00;100577.44;5130936;28;20066;-86
2022/11/20 07:00:25;;;;;;;15.82;5.65;;;4.80;99.90;;;4.48;100.00;100574.88;5128872;29;20050;-86
2022/11/20 07:02:57;;;;;;;17.38;6.55;;;4.90;99.90;;;4.50;100.00;100575.88;5132285;29;20520;-86
2022/11/20 07:05:29;;;;;;;16.35;6.43;;;4.80;99.90;;;4.48;100.00;100572.28;5131811;29;20054;-85
2022/11/20 07:08:01;;;;;;;14.82;6.07;;;4.80;99.90;;;4.49;100.00;100570.59;5129900;29;20043;-85
2022/11/20 07:10:33;;;;;;;15.77;6.45;;;4.80;99.90;;;4.51;100.00;100569.91;5145065;28;20051;-84
2022/11/20 07:13:06;;;;;;;17.70;6.60;;;4.80;99.90;;;4.53;100.00;100578.59;5128610;29;20065;-84
2022/11/20 07:15:40;;;;;;;14.48;5.43;;;4.80;99.90;;;4.54;100.00;100585.53;5128371;28;20110;-86
2022/11/20 07:18:12;;;;;;;17.85;7.22;;;4.90;99.90;;;4.59;100.00;100591.84;5127864;28;20071;-84
2022/11/20 07:20:44;;;;;;;20.15;8.80;;;4.90;99.90;;;4.61;100.00;100591.94;5129280;29;20054;-85
2022/11/20 07:23:16;;;;;;;25.25;10.93;;;4.90;99.90;;;4.65;100.00;100585.25;5129374;29;20062;-85
2022/11/20 07:25:48;;;;;;;21.95;9.27;;;5.00;99.90;;;4.65;100.00;100586.13;5129845;29;20413;-85
2022/11/20 07:28:20;;;;;;;18.63;8.65;;;4.90;99.90;;;4.67;100.00;100583.63;5127476;28;20047;-85
2022/11/20 07:30:54;;;;;;;15.93;7.70;;;4.90;99.90;;;4.66;100.00;100587.03;5128389;29;20054;-85
2022/11/20 07:33:26;;;;;;;16.85;7.60;;;4.90;99.90;;;4.69;100.00;100597.50;5143522;28;20047;-85
2022/11/20 07:36:00;;;;;;;16.77;7.13;;;4.90;99.90;;;4.69;100.00;100589.75;5127161;29;20078;-84
2022/11/20 07:38:32;;;;;;;16.08;7.10;;;4.90;99.90;;;4.70;100.00;100594.16;5128753;28;20039;-85
2022/11/20 07:41:04;;;;;;;17.40;8.05;;;5.00;99.90;;;4.73;100.00;100589.13;5127856;29;20510;-84
2022/11/20 07:43:36;;;;;;;18.00;7.82;;;5.00;99.90;;;4.73;100.00;100586.56;5143125;28;20043;-85
2022/11/20 07:46:10;;;;;;;16.98;7.68;;;5.00;99.90;;;4.70;100.00;100583.81;5128905;29;20051;-85
2022/11/20 07:48:42;;;;;;;15.10;7.22;;;5.00;99.90;;;4.72;100.00;100582.19;5127003;29;20054;-85
2022/11/20 07:51:14;;;;;;;18.30;6.95;;;4.90;99.90;;;4.73;100.00;100583.97;5127531;28;20070;-85
2022/11/20 07:53:46;;;;;;;19.25;7.97;;;5.00;99.90;;;4.75;100.00;100588.41;5128296;29;20047;-87
2022/11/20 07:56:18;;;;;;;15.63;6.70;;;5.00;99.90;;;4.76;100.00;100595.38;5143434;28;20043;-84
2022/11/20 07:58:50;;;;;;;20.27;7.82;;;5.00;99.90;;;4.78;100.00;100585.13;5127211;29;20553;-85
2022/11/20 08:01:23;;;;;;;17.45;6.80;;;5.00;99.90;;;4.76;100.00;100584.13;5127519;29;20062;-85
2022/11/20 08:03:55;;;;;;;17.58;6.65;;;5.00;99.90;;;4.74;100.00;100584.03;5127518;29;20051;-85
2022/11/20 08:06:27;;;;;;;14.15;6.68;;;5.00;99.90;;;4.79;100.00;100590.34;5128486;29;20050;-85
2022/11/20 08:09:00;;;;;;;16.70;7.03;;;5.00;99.90;;;4.80;100.00;100597.28;5126924;28;20051;-86
2022/11/20 08:14:22;;;;;;;15.25;6.07;;;5.10;99.90;;;4.86;100.00;100582.13;5127548;29;20071;-85
2022/11/20 08:16:55;;;;;;;15.18;5.97;;;5.10;99.90;;;4.90;100.00;100578.94;5127151;29;20047;-87
2022/11/20 08:19:28;;;;;;;16.25;6.50;;;5.10;99.90;;;4.95;100.00;100586.00;5143238;28;20052;-88
2022/11/20 08:22:00;;;;;;;13.73;6.15;;;5.20;99.90;;;4.98;100.00;100579.31;5132968;28;20057;-85
2022/11/20 08:24:32;;;;;;;16.13;5.80;;;5.20;99.90;;;5.01;100.00;100576.91;5145967;28;20043;-86
2022/11/20 08:27:04;;;;;;;13.88;6.00;;;5.20;99.90;;;5.07;100.00;100586.66;5108843;29;20430;-84
2022/11/20 08:29:36;;;;;;;20.48;8.70;;;5.30;99.90;;;5.07;100.00;100586.66;5110781;29;20056;-85
2022/11/20 08:32:09;;;;;;;16.27;6.20;;;5.30;99.90;;;5.22;100.00;100586.63;5128114;29;20110;-85
2022/11/20 08:34:41;;;;;;;18.10;6.60;;;5.40;99.90;;;5.44;100.00;100582.63;5145331;28;20051;-82
2022/11/20 08:37:13;;;;;;;17.35;7.00;;;5.70;99.90;;;5.83;100.00;100582.00;5144037;28;20051;-84
2022/11/20 08:39:46;;;;;;;20.98;8.07;;;6.00;99.90;;;5.85;100.00;100585.53;5126364;29;20055;-83
2022/11/20 08:42:18;;;;;;;18.65;6.60;;;6.10;99.90;;;6.88;100.00;100586.25;5125865;29;20101;-78
2022/11/20 08:44:50;;;;;;;20.52;8.32;;;7.20;99.90;;;8.27;100.00;100582.78;5125207;29;20707;-80
2022/11/20 08:47:24;;;;;;;17.17;6.85;;;8.90;99.90;;;8.52;100.00;100589.00;5125601;29;20055;-84
2022/11/20 08:49:56;;;;;;;15.00;6.15;;;9.20;99.90;;;8.23;100.00;100593.91;5124597;29;20429;-82
2022/11/20 08:52:28;;;;;;;16.15;5.95;;;8.80;99.90;;;7.84;100.00;100591.41;5125253;29;20051;-83
2022/11/20 08:55:00;;;;;;;16.55;6.10;;;8.40;99.90;;;7.47;100.00;100590.63;5125301;29;20052;-81
2022/11/20 08:57:33;;;;;;;21.60;8.18;;;7.90;99.90;;;7.10;100.00;100582.91;5124485;29;20517;-82
2022/11/20 09:00:07;;;;;;;15.40;6.80;;;7.50;99.90;;;6.82;100.00;100581.66;5140550;28;20122;-83
2022/11/20 09:02:41;;;;;;;16.73;6.95;;;7.20;99.90;;;6.67;100.00;100592.22;5127132;29;20059;-84
2022/11/20 09:05:13;;;;;;;25.15;10.82;;;7.00;99.90;;;6.54;100.00;100595.03;5141779;28;20403;-81
2022/11/20 09:07:45;;;;;;;20.05;8.05;;;6.80;99.90;;;6.44;100.00;100588.50;5126178;29;20047;-81
2022/11/20 09:10:17;;;;;;;19.90;8.63;;;6.70;99.90;;;6.37;100.00;100591.63;5125800;29;20051;-81
2022/11/20 09:12:50;;;;;;;18.20;7.65;;;6.60;99.90;;;6.31;100.00;100593.03;5127222;29;20074;-84
2022/11/20 09:15:22;;;;;;;24.80;8.82;;;6.50;99.90;;;6.18;100.00;100595.00;5126447;29;20051;-83
2022/11/20 09:18:00;;;;;;;18.40;7.50;;;6.40;99.90;;;6.13;100.00;100585.25;5126024;29;20063;-82
2022/11/20 09:20:32;;;;;;;16.92;7.72;;;6.40;99.90;;;6.13;100.00;100587.84;5127153;29;20051;-82
2022/11/20 09:23:04;;;;;;;18.58;8.30;;;6.40;99.90;;;6.14;100.00;100584.47;5137696;28;20052;-81
2022/11/20 09:25:36;;;;;;;22.45;8.57;;;6.30;99.90;;;6.09;100.00;100573.88;5136717;28;20051;-85
2022/11/20 09:28:08;;;;;;;24.33;8.77;;;6.30;99.90;;;5.99;100.00;100576.81;5141836;28;20062;-83
2022/11/20 09:30:40;;;;;;;18.25;8.05;;;6.30;99.90;;;5.97;100.00;100583.63;5125597;28;20430;-84
2022/11/20 09:33:14;;;;;;;17.67;7.40;;;6.20;99.90;;;5.98;100.00;100567.28;5142072;28;20051;-82
2022/11/20 09:35:46;;;;;;;20.90;7.90;;;6.20;99.90;;;6.02;100.00;100569.22;5127412;29;20047;-84
2022/11/20 09:38:18;;;;;;;21.20;8.45;;;6.30;99.90;;;6.06;100.00;100568.53;5128185;28;20524;-83
2022/11/20 09:40:58;;;;;;;21.45;8.15;;;6.20;99.90;;;6.10;100.00;100564.41;5144941;28;20043;-82
2022/11/20 09:43:45;;;;;;;18.58;7.53;;;6.30;99.90;;;6.16;100.00;100563.00;5137240;28;20043;-84
2022/11/20 09:46:27;;;;;;;19.25;7.90;;;6.30;99.90;;;6.25;100.00;100562.56;5109521;29;20052;-83
2022/11/20 09:49:20;;;;;;;19.65;8.35;;;6.40;99.90;;;6.37;100.00;100557.97;5108612;29;20043;-83
2022/11/20 09:51:59;;;;;;;24.77;11.57;;;6.50;99.90;;;6.48;100.00;100556.78;5124095;28;20052;-82
2022/11/20 09:54:36;;;;;;;33.47;15.80;;;6.60;99.90;;;6.54;100.00;100574.31;5108387;29;20422;-84
2022/11/20 09:57:13;;;;;;;23.63;9.95;;;6.70;99.90;;;6.56;100.00;100567.50;5123676;28;20048;-83
2022/11/20 09:59:50;;;;;;;22.05;10.00;;;6.60;99.90;;;6.57;100.00;100566.66;5109291;29;20047;-83
2022/11/20 10:02:30;;;;;;;24.65;9.55;;;6.70;99.90;;;6.56;100.00;100562.31;5124460;28;20044;-84
2022/11/20 10:05:12;;;;;;;22.00;9.98;;;6.70;99.90;;;6.52;100.00;100563.00;5108952;29;20654;-84
2022/11/20 10:07:49;;;;;;;23.73;10.38;;;6.70;99.90;;;6.40;100.00;100570.19;5110073;29;20075;-83
2022/11/20 10:10:32;;;;;;;27.02;10.57;;;6.60;99.90;;;6.33;100.00;100573.31;5125172;29;20056;-83
2022/11/20 10:13:24;;;;;;;20.30;9.00;;;6.60;99.90;;;6.30;100.00;100574.03;5124948;28;20051;-83
2022/11/20 10:16:14;;;;;;;22.00;8.38;;;6.50;99.90;;;6.29;100.00;100564.47;5110531;29;20043;-85
2022/11/20 10:19:04;;;;;;;37.03;14.52;;;6.50;99.90;;;6.22;100.00;100555.53;5110690;29;20062;-83
2022/11/20 10:22:00;;;;;;;29.10;11.63;;;6.50;99.90;;;6.31;100.00;100559.38;5109559;28;20059;-82
2022/11/20 10:24:45;;;;;;;27.10;11.43;;;6.50;99.90;;;6.28;100.00;100560.13;5108768;29;20048;-82
2022/11/20 10:28:03;;;;;;;23.95;10.85;;;6.50;99.90;;;6.35;100.00;100545.78;5124514;28;20062;-84
2022/11/20 10:30:45;;;;;;;24.40;10.25;;;6.50;99.90;;;6.35;100.00;100541.47;5130378;28;20538;-82
2022/11/20 10:33:22;;;;;;;22.85;9.70;;;6.60;99.90;;;6.26;100.00;100528.13;5112901;29;20131;-82
2022/11/20 10:36:03;;;;;;;26.85;10.70;;;6.60;99.90;;;6.28;100.00;100535.94;5109771;29;20055;-83
2022/11/20 10:38:42;;;;;;;25.38;10.32;;;6.50;99.90;;;6.25;100.00;100524.59;5124376;28;20063;-81
2022/11/20 10:41:27;;;;;;;36.53;14.50;;;6.50;99.90;;;6.29;100.00;100514.41;5109241;29;20059;-82
2022/11/20 10:44:06;;;;;;;30.38;13.32;;;6.50;99.90;;;6.33;100.00;100506.88;5111002;28;20043;-82